createdAt,value
2022-10-28T00:01:48.297Z,18.55
2022-10-28T00:04:51.501Z,19.95
2022-10-28T00:07:55.038Z,20.27
2022-10-28T00:11:11.109Z,24.55
2022-10-28T00:14:15.196Z,23.70
2022-10-28T00:17:18.386Z,22.77
2022-10-28T00:20:21.211Z,20.37
2022-10-28T00:23:24.250Z,19.85
2022-10-28T00:26:29.601Z,19.87
2022-10-28T00:29:32.783Z,18.42
2022-10-28T00:32:35.527Z,19.15
2022-10-28T00:35:38.568Z,20.35
2022-10-28T00:38:42.588Z,19.58
2022-10-28T00:41:48.691Z,21.60
2022-10-28T00:44:58.477Z,23.67
2022-10-28T00:48:03.219Z,19.73
2022-10-28T00:51:06.368Z,21.15
2022-10-28T00:54:10.634Z,18.95
2022-10-28T00:57:17.702Z,16.92
2022-10-28T01:00:21.776Z,16.65
2022-10-28T01:03:24.571Z,15.98
2022-10-28T01:06:29.338Z,18.40
2022-10-28T01:09:32.102Z,15.02
2022-10-28T01:13:03.760Z,15.75
2022-10-28T01:16:24.532Z,13.75
2022-10-28T01:19:49.469Z,15.13
2022-10-28T01:23:20.223Z,13.77
2022-10-28T01:26:42.186Z,12.02
2022-10-28T01:30:24.548Z,16.95
2022-10-28T01:33:55.133Z,16.02
2022-10-28T01:37:11.012Z,15.25
2022-10-28T01:40:20.836Z,16.77
2022-10-28T01:43:34.845Z,19.12
2022-10-28T01:46:41.760Z,18.92
2022-10-28T01:50:42.005Z,19.05
2022-10-28T01:53:47.924Z,18.90
2022-10-28T01:56:51.332Z,19.98
2022-10-28T01:59:55.382Z,18.33
2022-10-28T02:02:58.972Z,22.55
2022-10-28T02:06:04.870Z,21.60
2022-10-28T02:09:20.912Z,20.00
2022-10-28T02:12:29.937Z,20.37
2022-10-28T02:15:39.281Z,22.08
2022-10-28T02:18:54.714Z,21.75
2022-10-28T02:22:12.813Z,20.55
2022-10-28T02:25:33.019Z,20.67
2022-10-28T02:28:40.108Z,20.62
2022-10-28T02:31:56.083Z,21.65
2022-10-28T02:35:00.989Z,19.20
2022-10-28T02:41:17.718Z,16.37
2022-10-28T02:44:28.773Z,20.23
2022-10-28T02:47:34.613Z,16.02
2022-10-28T02:50:40.793Z,15.93
2022-10-28T02:53:56.979Z,19.00
2022-10-28T02:57:07.965Z,18.90
2022-10-28T03:00:17.064Z,16.27
2022-10-28T03:03:20.099Z,17.75
2022-10-28T03:06:22.877Z,19.70
2022-10-28T03:09:25.947Z,20.92
2022-10-28T03:12:28.701Z,21.58
2022-10-28T03:15:31.733Z,18.50
2022-10-28T03:18:34.722Z,20.77
2022-10-28T03:21:38.980Z,17.55
2022-10-28T03:24:41.915Z,19.60
2022-10-28T03:27:46.522Z,20.65
2022-10-28T03:30:49.302Z,21.75
2022-10-28T03:33:52.371Z,22.55
2022-10-28T03:36:55.133Z,17.75
2022-10-28T03:39:59.297Z,27.52
2022-10-28T03:43:02.303Z,25.25
2022-10-28T03:46:05.497Z,24.08
2022-10-28T03:49:08.265Z,20.50
2022-10-28T03:52:11.407Z,20.73
2022-10-28T03:55:14.237Z,24.65
2022-10-28T03:58:17.576Z,21.83
2022-10-28T04:01:21.789Z,25.62
2022-10-28T04:04:28.409Z,22.50
2022-10-28T04:07:33.727Z,19.45
2022-10-28T04:10:38.162Z,17.60
2022-10-28T04:13:41.154Z,20.50
2022-10-28T04:16:45.337Z,19.60
2022-10-28T04:19:48.157Z,19.40
2022-10-28T04:22:54.612Z,19.42
2022-10-28T04:25:59.769Z,19.77
2022-10-28T04:29:02.858Z,19.90
2022-10-28T04:32:05.641Z,19.05
2022-10-28T04:35:09.413Z,18.55
2022-10-28T04:38:14.180Z,18.00
2022-10-28T04:41:17.653Z,19.95
2022-10-28T04:44:20.391Z,18.48
2022-10-28T04:47:23.451Z,15.98
2022-10-28T04:50:26.697Z,18.33
2022-10-28T04:53:29.781Z,15.80
2022-10-28T04:56:33.469Z,16.20
2022-10-28T04:59:37.630Z,18.00
2022-10-28T05:02:45.150Z,17.52
2022-10-28T05:05:49.309Z,19.73
2022-10-28T05:08:52.066Z,16.23
2022-10-28T05:11:55.758Z,17.50
2022-10-28T05:14:59.180Z,15.15
2022-10-28T05:18:02.245Z,14.65
2022-10-28T05:21:05.157Z,16.08
2022-10-28T05:24:08.564Z,15.13
2022-10-28T05:27:12.643Z,14.80
2022-10-28T05:30:15.860Z,17.17
2022-10-28T05:33:18.588Z,15.95
2022-10-28T05:36:21.621Z,13.20
2022-10-28T05:39:24.382Z,15.70
2022-10-28T05:42:27.470Z,16.83
2022-10-28T05:45:31.082Z,20.30
2022-10-28T05:48:34.309Z,15.60
2022-10-28T05:51:37.697Z,17.17
2022-10-28T05:54:40.819Z,15.88
2022-10-28T05:57:43.611Z,18.65
2022-10-28T06:00:46.609Z,16.30
2022-10-28T06:03:49.697Z,16.65
2022-10-28T06:06:55.274Z,16.42
2022-10-28T06:09:58.264Z,15.88
2022-10-28T06:12:59.370Z,17.55
2022-10-28T06:16:02.939Z,18.10
2022-10-28T06:19:05.659Z,18.75
2022-10-28T06:22:08.650Z,18.45
2022-10-28T06:25:11.918Z,18.30
2022-10-28T06:28:15.369Z,21.85
2022-10-28T06:31:18.465Z,19.10
2022-10-28T06:34:21.603Z,20.60
2022-10-28T06:37:24.752Z,19.52
2022-10-28T06:40:27.927Z,20.70
2022-10-28T06:43:30.692Z,19.15
2022-10-28T06:46:35.728Z,18.58
2022-10-28T06:49:38.705Z,23.25
2022-10-28T06:52:41.753Z,21.62
2022-10-28T06:55:48.950Z,21.35
2022-10-28T06:58:53.383Z,22.25
2022-10-28T07:01:56.533Z,23.40
2022-10-28T07:04:59.614Z,20.67
2022-10-28T07:08:02.387Z,21.17
2022-10-28T07:11:06.519Z,22.20
2022-10-28T07:14:12.021Z,24.17
2022-10-28T07:17:15.338Z,22.60
2022-10-28T07:20:19.372Z,22.10
2022-10-28T07:23:22.996Z,24.55
2022-10-28T07:26:30.515Z,23.42
2022-10-28T07:29:33.668Z,20.73
2022-10-28T07:32:37.183Z,21.80
2022-10-28T07:35:40.378Z,18.45
2022-10-28T07:38:43.322Z,21.25
2022-10-28T07:41:46.944Z,20.05
2022-10-28T07:44:49.755Z,20.95
2022-10-28T07:47:53.440Z,21.02
2022-10-28T07:50:56.184Z,17.67
2022-10-28T07:53:59.658Z,18.60
2022-10-28T07:57:02.529Z,20.70
2022-10-28T08:00:07.070Z,15.38
2022-10-28T08:03:12.964Z,18.75
2022-10-28T08:06:20.639Z,15.00
2022-10-28T08:09:23.408Z,20.25
2022-10-28T08:12:28.369Z,19.02
2022-10-28T08:15:31.075Z,17.17
2022-10-28T08:18:36.472Z,17.35
2022-10-28T08:24:43.423Z,20.83
2022-10-28T08:27:46.171Z,21.85
2022-10-28T08:31:04.210Z,26.52
2022-10-28T08:34:10.676Z,20.98
2022-10-28T08:37:16.321Z,26.20
2022-10-28T08:40:27.246Z,27.90
2022-10-28T08:43:57.229Z,26.90
2022-10-28T08:47:04.391Z,26.02
2022-10-28T08:50:16.364Z,26.80
2022-10-28T08:53:39.461Z,26.90
2022-10-28T08:56:48.730Z,25.27
2022-10-28T08:59:54.404Z,28.25
2022-10-28T09:03:13.284Z,29.00
2022-10-28T09:06:16.061Z,28.85
2022-10-28T09:09:21.847Z,29.52
2022-10-28T09:12:43.421Z,23.80
2022-10-28T09:16:03.666Z,27.05
2022-10-28T09:19:19.758Z,29.30
2022-10-28T09:22:25.755Z,27.73
2022-10-28T09:25:49.650Z,25.42
2022-10-28T09:29:02.987Z,29.20
2022-10-28T09:32:19.675Z,29.00
2022-10-28T09:35:25.452Z,28.83
2022-10-28T09:38:36.388Z,30.27
2022-10-28T09:41:40.534Z,29.52
2022-10-28T09:44:50.132Z,27.08
2022-10-28T09:47:59.218Z,32.45
2022-10-28T09:51:02.304Z,30.50
2022-10-28T09:54:05.647Z,31.48
2022-10-28T09:57:11.481Z,28.80
2022-10-28T10:00:17.971Z,30.50
2022-10-28T10:03:21.119Z,33.07
2022-10-28T10:06:31.844Z,29.75
2022-10-28T10:09:36.194Z,30.05
2022-10-28T10:12:39.573Z,27.60
2022-10-28T10:15:52.630Z,32.20
2022-10-28T10:18:58.085Z,34.53
2022-10-28T10:22:01.095Z,34.55
2022-10-28T10:25:06.542Z,34.88
2022-10-28T10:28:16.048Z,36.38
2022-10-28T10:31:27.478Z,33.53
2022-10-28T10:34:31.075Z,33.88
2022-10-28T10:37:35.746Z,33.33
2022-10-28T10:43:50.293Z,35.17
2022-10-28T10:46:53.230Z,34.88
2022-10-28T10:50:24.215Z,35.75
2022-10-28T10:53:31.895Z,32.60
2022-10-28T10:56:34.663Z,37.70
2022-10-28T10:59:38.084Z,34.42
2022-10-28T11:02:41.088Z,36.30
2022-10-28T11:06:05.342Z,31.77
2022-10-28T11:09:36.510Z,34.25
2022-10-28T11:12:51.639Z,32.85
2022-10-28T11:16:02.527Z,30.40
2022-10-28T11:19:20.023Z,33.97
2022-10-28T11:22:41.448Z,33.78
2022-10-28T11:25:50.895Z,27.05
2022-10-28T11:29:12.539Z,31.12
2022-10-28T11:32:54.443Z,31.23
2022-10-28T11:36:33.257Z,30.73
2022-10-28T11:40:01.454Z,32.15
2022-10-28T11:43:25.284Z,34.00
2022-10-28T11:46:46.783Z,30.15
2022-10-28T11:50:04.665Z,31.90
2022-10-28T11:53:30.563Z,32.92
2022-10-28T11:59:53.151Z,35.85
2022-10-28T12:03:18.835Z,35.58
2022-10-28T12:06:28.011Z,35.38
2022-10-28T12:09:55.350Z,36.20
2022-10-28T12:13:26.601Z,35.45
2022-10-28T12:16:38.920Z,37.65
2022-10-28T12:19:58.838Z,35.97
2022-10-28T12:23:04.273Z,32.70
2022-10-28T12:26:10.974Z,33.78
2022-10-28T12:29:19.541Z,31.67
2022-10-28T12:32:34.428Z,35.38
2022-10-28T12:35:40.790Z,35.70
2022-10-28T12:39:04.732Z,40.08
2022-10-28T12:42:31.388Z,33.03
2022-10-28T12:45:34.455Z,37.05
2022-10-28T12:48:56.390Z,32.10
2022-10-28T12:52:05.809Z,34.50
2022-10-28T12:55:16.851Z,30.42
2022-10-28T12:58:51.021Z,35.50
2022-10-28T13:01:54.195Z,34.63
2022-10-28T13:04:58.343Z,31.73
2022-10-28T13:08:27.235Z,35.30
2022-10-28T13:12:08.559Z,34.15
2022-10-28T13:15:36.759Z,32.85
2022-10-28T13:18:44.042Z,32.28
2022-10-28T13:22:05.529Z,35.22
2022-10-28T13:25:47.305Z,30.25
2022-10-28T13:28:52.624Z,32.55
2022-10-28T13:31:56.326Z,33.45
2022-10-28T13:34:59.897Z,33.65
2022-10-28T13:38:10.696Z,28.65
2022-10-28T13:41:36.439Z,33.30
2022-10-28T13:44:54.409Z,31.70
2022-10-28T13:48:46.539Z,35.97
2022-10-28T13:51:51.112Z,32.67
2022-10-28T13:54:56.685Z,33.63
2022-10-28T13:58:06.803Z,31.02
2022-10-28T14:01:37.785Z,33.88
2022-10-28T14:04:41.785Z,36.65
2022-10-28T14:08:06.326Z,31.08
2022-10-28T14:11:13.316Z,29.77
2022-10-28T14:14:16.979Z,34.05
2022-10-28T14:17:22.689Z,36.00
2022-10-28T14:20:42.394Z,32.15
2022-10-28T14:23:45.474Z,29.25
2022-10-28T14:27:06.879Z,30.35
2022-10-28T14:30:19.093Z,37.38
2022-10-28T14:33:22.224Z,32.65
2022-10-28T14:37:01.294Z,26.10
2022-10-28T14:40:29.178Z,30.58
2022-10-28T14:43:38.376Z,31.33
2022-10-28T14:46:56.251Z,31.40
2022-10-28T14:50:02.194Z,26.12
2022-10-28T14:53:08.371Z,26.52
2022-10-28T14:56:24.636Z,27.02
2022-10-28T14:59:29.656Z,29.50
2022-10-28T15:02:34.101Z,27.20
2022-10-28T15:05:37.339Z,25.83
2022-10-28T15:08:40.341Z,30.00
2022-10-28T15:11:46.224Z,28.92
2022-10-28T15:14:52.335Z,28.10
2022-10-28T15:17:55.505Z,31.52
2022-10-28T15:21:10.168Z,27.33
2022-10-28T15:24:13.924Z,28.80
2022-10-28T15:27:17.383Z,31.95
2022-10-28T15:30:25.182Z,29.58
2022-10-28T15:33:32.991Z,36.50
2022-10-28T15:36:36.017Z,29.25
2022-10-28T15:39:39.838Z,30.30
2022-10-28T15:42:45.899Z,32.15
2022-10-28T15:45:49.367Z,30.02
2022-10-28T15:48:53.531Z,30.37
2022-10-28T15:52:20.844Z,28.45
2022-10-28T15:55:35.942Z,30.00
2022-10-28T15:58:59.546Z,35.15
2022-10-28T16:02:02.505Z,26.48
2022-10-28T16:05:07.831Z,34.90
2022-10-28T16:08:17.806Z,31.05
2022-10-28T16:11:21.216Z,30.58
2022-10-28T16:14:44.204Z,38.38
2022-10-28T16:17:47.282Z,30.98
2022-10-28T16:20:50.125Z,31.87
2022-10-28T16:23:59.096Z,36.42
2022-10-28T16:27:18.600Z,29.33
2022-10-28T16:33:32.318Z,33.30
2022-10-28T16:36:35.473Z,31.45
2022-10-28T16:39:38.243Z,32.35
2022-10-28T16:42:41.602Z,37.53
2022-10-28T16:45:44.486Z,31.98
2022-10-28T16:48:47.724Z,32.55
2022-10-28T16:51:50.782Z,33.83
2022-10-28T16:54:54.023Z,31.90
2022-10-28T16:57:57.451Z,32.47
2022-10-28T17:01:01.420Z,29.73
2022-10-28T17:04:05.657Z,29.30
2022-10-28T17:07:08.794Z,32.88
2022-10-28T17:10:13.419Z,33.30
2022-10-28T17:13:16.977Z,29.50
2022-10-28T17:16:20.339Z,36.22
2022-10-28T17:19:24.908Z,30.52
2022-10-28T17:22:29.274Z,26.20
2022-10-28T17:25:32.598Z,30.85
2022-10-28T17:28:36.316Z,27.95
2022-10-28T17:31:40.036Z,30.85
2022-10-28T17:34:44.218Z,30.55
2022-10-28T17:37:48.295Z,31.90
2022-10-28T17:40:55.940Z,32.83
2022-10-28T17:43:59.167Z,32.83
2022-10-28T17:47:02.451Z,32.03
2022-10-28T17:50:07.325Z,31.17
2022-10-28T17:53:11.749Z,29.35
2022-10-28T17:56:15.054Z,34.28
2022-10-28T17:59:19.400Z,33.92
2022-10-28T18:02:23.229Z,33.53
2022-10-28T18:05:28.085Z,34.88
2022-10-28T18:08:37.472Z,32.05
2022-10-28T18:11:41.911Z,30.80
2022-10-28T18:14:45.002Z,26.48
2022-10-28T18:17:50.484Z,31.83
2022-10-28T18:20:55.776Z,29.40
2022-10-28T18:24:04.349Z,33.83
2022-10-28T18:27:07.828Z,29.50
2022-10-28T18:30:12.785Z,32.72
2022-10-28T18:33:16.067Z,29.77
2022-10-28T18:36:23.923Z,30.07
2022-10-28T18:39:27.178Z,33.53
2022-10-28T18:42:32.012Z,30.50
2022-10-28T18:48:39.998Z,34.65
2022-10-28T18:51:43.398Z,38.40
2022-10-28T18:54:47.386Z,35.53
2022-10-28T18:57:57.255Z,34.92
2022-10-28T19:01:21.610Z,33.28
2022-10-28T19:04:24.601Z,36.97
2022-10-28T19:07:27.787Z,39.08
2022-10-28T19:10:31.019Z,36.08
2022-10-28T19:13:36.326Z,34.85
2022-10-28T19:16:40.681Z,44.15
2022-10-28T19:19:44.008Z,36.08
2022-10-28T19:22:48.158Z,36.85
2022-10-28T19:25:56.388Z,37.47
2022-10-28T19:29:00.196Z,36.10
2022-10-28T19:32:05.069Z,35.13
2022-10-28T19:35:09.335Z,35.00
2022-10-28T19:38:14.000Z,35.85
2022-10-28T19:44:21.878Z,32.63
2022-10-28T19:47:24.939Z,34.30
2022-10-28T19:50:28.414Z,32.97
2022-10-28T19:53:32.462Z,37.10
2022-10-28T19:59:39.116Z,33.00
2022-10-28T20:02:42.452Z,36.97
2022-10-28T20:05:45.996Z,29.95
2022-10-28T20:08:49.642Z,34.20
2022-10-28T20:11:53.002Z,33.90
2022-10-28T20:14:56.042Z,34.33
2022-10-28T20:17:59.213Z,34.90
2022-10-28T20:21:11.886Z,30.80
2022-10-28T20:24:16.116Z,34.58
2022-10-28T20:27:19.114Z,32.90
2022-10-28T20:30:22.132Z,37.50
2022-10-28T20:33:27.241Z,31.87
2022-10-28T20:36:30.233Z,32.67
2022-10-28T20:39:33.574Z,32.88
2022-10-28T20:42:37.016Z,40.65
2022-10-28T20:45:39.808Z,36.50
2022-10-28T20:48:42.954Z,31.00
2022-10-28T20:51:45.868Z,34.78
2022-10-28T20:54:48.906Z,36.50
2022-10-28T20:57:51.946Z,35.63
2022-10-28T21:00:55.108Z,34.13
2022-10-28T21:04:00.697Z,35.88
2022-10-28T21:07:03.720Z,36.53
2022-10-28T21:10:07.048Z,37.00
2022-10-28T21:13:10.126Z,38.13
2022-10-28T21:16:14.659Z,33.95
2022-10-28T21:19:17.646Z,36.08
2022-10-28T21:22:21.608Z,33.95
2022-10-28T21:25:34.467Z,35.32
2022-10-28T21:28:37.595Z,34.50
2022-10-28T21:31:40.631Z,34.53
2022-10-28T21:34:43.982Z,35.88
2022-10-28T21:37:47.144Z,37.58
2022-10-28T21:40:50.311Z,33.08
2022-10-28T21:43:54.645Z,31.17
2022-10-28T21:46:57.622Z,34.63
2022-10-28T21:50:00.887Z,41.17
2022-10-28T21:53:04.270Z,34.35
2022-10-28T21:56:16.701Z,38.03
2022-10-28T21:59:20.665Z,35.05
2022-10-28T22:02:23.840Z,34.42
2022-10-28T22:05:26.899Z,33.63
2022-10-28T22:08:30.012Z,34.58
2022-10-28T22:11:33.069Z,34.40
2022-10-28T22:14:36.000Z,34.53
2022-10-28T22:17:39.849Z,38.22
2022-10-28T22:20:42.669Z,35.28
2022-10-28T22:23:45.808Z,34.78
2022-10-28T22:26:48.830Z,40.30
2022-10-28T22:29:51.843Z,34.35
2022-10-28T22:32:54.913Z,38.47
2022-10-28T22:36:03.459Z,41.33
2022-10-28T22:39:06.610Z,36.25
2022-10-28T22:42:09.661Z,32.97
2022-10-28T22:45:12.384Z,34.42
2022-10-28T22:48:15.495Z,35.80
2022-10-28T22:51:18.851Z,39.63
2022-10-28T22:54:22.160Z,37.28
2022-10-28T22:57:24.883Z,35.60
2022-10-28T23:00:27.924Z,34.13
2022-10-28T23:03:38.648Z,32.67
2022-10-28T23:06:41.914Z,34.47
2022-10-28T23:09:44.610Z,33.42
2022-10-28T23:12:47.768Z,34.67
2022-10-28T23:15:50.501Z,36.55
2022-10-28T23:18:53.888Z,33.03
2022-10-28T23:21:56.618Z,35.33
2022-10-28T23:24:59.754Z,32.40
2022-10-28T23:28:05.249Z,32.45
2022-10-28T23:31:10.107Z,36.00
2022-10-28T23:34:12.812Z,35.08
2022-10-28T23:37:15.838Z,33.70
2022-10-28T23:40:18.531Z,33.42
2022-10-28T23:43:21.625Z,36.50
2022-10-28T23:46:25.190Z,37.97
2022-10-28T23:49:28.215Z,36.13
2022-10-28T23:52:31.042Z,39.25
2022-10-28T23:55:34.863Z,39.05
2022-10-28T23:58:37.587Z,36.60
